Time;durP1;ratioP1;P1;durP2;ratioP2;P2;SDS_P1;SDS_P2;PMS_P1;PMS_P2;Temp;Humidity;BMP_temperature;BMP_pressure;BME280_temperature;BME280_humidity;BME280_pressure;Samples;Min_cycle;Max_cycle;Signal;HPM_P1;HPM_P2
2023/05/10 00:01:19;;;;;;;71.07;36.90;;;12.40;99.90;;;;;;4915240;29;38101;-81
2023/05/10 00:03:46;;;;;;;73.55;38.88;;;12.40;99.90;;;;;;4902678;29;39535;-81
2023/05/10 00:06:12;;;;;;;59.45;34.67;;;12.40;99.90;;;;;;4906422;28;40168;-80
2023/05/10 00:08:38;;;;;;;66.82;36.33;;;12.50;99.90;;;;;;4924658;28;38338;-81
2023/05/10 00:11:04;;;;;;;60.13;33.92;;;12.50;99.90;;;;;;4908354;29;35778;-81
2023/05/10 00:13:31;;;;;;;64.40;36.88;;;12.40;99.90;;;;;;4916042;28;39164;-81
2023/05/10 00:15:57;;;;;;;69.88;34.25;;;12.40;99.90;;;;;;4916065;29;38735;-80
2023/05/10 00:18:24;;;;;;;68.35;32.75;;;12.40;99.90;;;;;;4925073;28;37884;-81
2023/05/10 00:20:50;;;;;;;75.40;35.10;;;12.40;99.90;;;;;;4922320;29;37669;-81
2023/05/10 00:23:16;;;;;;;78.95;35.08;;;12.40;99.90;;;;;;4917412;28;38754;-81
2023/05/10 00:25:42;;;;;;;74.03;36.97;;;12.40;99.90;;;;;;4918758;29;37195;-81
2023/05/10 00:28:11;;;;;;;90.03;37.80;;;12.40;99.90;;;;;;4914050;29;38301;-81
2023/05/10 00:30:37;;;;;;;77.60;37.42;;;12.40;99.90;;;;;;4912831;28;37951;-81
2023/05/10 00:33:03;;;;;;;73.93;35.95;;;12.40;99.90;;;;;;4918258;28;39169;-81
2023/05/10 00:35:29;;;;;;;94.43;39.88;;;12.40;99.90;;;;;;4907602;29;37124;-81
2023/05/10 00:37:55;;;;;;;104.35;42.05;;;12.50;99.90;;;;;;4927212;29;38959;-81
2023/05/10 00:40:21;;;;;;;64.93;38.17;;;12.40;99.90;;;;;;4919835;28;37504;-81
2023/05/10 00:42:47;;;;;;;78.25;38.40;;;12.40;99.90;;;;;;4916945;29;37843;-81
2023/05/10 00:45:13;;;;;;;70.88;37.22;;;12.50;99.90;;;;;;4914577;28;38253;-81
2023/05/10 00:47:40;;;;;;;85.20;38.40;;;12.50;99.90;;;;;;4918877;29;38498;-81
2023/05/10 00:50:12;;;;;;;83.18;38.95;;;12.50;99.90;;;;;;4914398;29;36004;-81
2023/05/10 00:52:38;;;;;;;;;;;12.50;99.90;;;;;;4920287;29;37677;-81
2023/05/10 00:55:06;;;;;;;86.85;38.72;;;12.50;99.90;;;;;;4917807;28;37115;-80
2023/05/10 00:57:32;;;;;;;70.30;35.55;;;12.50;99.90;;;;;;4912030;29;38068;-81
2023/05/10 00:59:59;;;;;;;94.53;40.47;;;12.50;99.90;;;;;;4908488;29;37691;-81
2023/05/10 01:11:15;;;;;;;85.50;39.05;;;12.60;99.90;;;;;;4928864;23;20048;-81
2023/05/10 01:17:16;;;;;;;61.00;32.95;;;12.60;99.90;;;;;;5122391;23;20051;-80
2023/05/10 01:23:28;;;;;;;74.35;36.67;;;12.60;99.90;;;;;;5292644;23;20061;-82
2023/05/10 01:47:52;;;;;;;113.70;39.40;;;12.70;99.90;;;;;;4960521;23;20044;-84
2023/05/10 01:53:54;;;;;;;86.00;36.45;;;12.70;99.90;;;;;;4992084;23;20053;-81
2023/05/10 01:57:10;;;;;;;71.45;33.42;;;12.70;99.90;;;;;;4970444;23;49367;-81
2023/05/10 02:06:48;;;;;;;;;;;12.70;99.90;;;;;;5153973;23;20056;-83
2023/05/10 02:21:36;;;;;;;72.65;36.70;;;12.70;99.90;;;;;;5036346;23;20080;-80
2023/05/10 02:24:21;;;;;;;74.80;34.75;;;12.80;99.90;;;;;;4917836;29;39865;-82
2023/05/10 02:27:08;;;;;;;71.15;34.03;;;12.80;99.90;;;;;;4907118;29;48901;-82
2023/05/10 02:29:47;;;;;;;81.82;36.00;;;12.80;99.90;;;;;;4943637;23;50349;-84
2023/05/10 02:53:59;;;;;;;73.00;39.80;;;12.80;99.90;;;;;;4954709;23;20045;-82
2023/05/10 02:57:23;;;;;;;68.43;39.30;;;12.70;99.90;;;;;;4919092;29;40278;-84
2023/05/10 03:00:36;;;;;;;93.05;43.08;;;12.70;99.90;;;;;;4903938;29;39782;-83
2023/05/10 03:03:56;;;;;;;74.85;41.58;;;12.70;99.90;;;;;;4900441;29;39657;-82
2023/05/10 03:14:00;;;;;;;76.40;46.28;;;12.70;99.90;;;;;;4926529;28;40250;-82
2023/05/10 03:17:01;;;;;;;75.30;41.13;;;12.70;99.90;;;;;;4950124;23;39549;-82
2023/05/10 04:07:19;;;;;;;80.75;46.65;;;12.60;99.90;;;;;;4934287;23;20041;-82
2023/05/10 04:10:20;;;;;;;85.75;48.08;;;12.60;99.90;;;;;;4902353;29;39239;-81
2023/05/10 04:13:30;;;;;;;125.13;54.72;;;12.60;99.90;;;;;;4895904;29;39005;-81
2023/05/10 04:22:59;;;;;;;89.15;44.75;;;12.50;99.90;;;;;;5290915;23;20054;-80
2023/05/10 04:28:41;;;;;;;85.32;43.75;;;12.40;99.90;;;;;;5171412;23;20049;-81
2023/05/10 04:34:58;;;;;;;72.47;39.33;;;12.40;99.90;;;;;;5380965;23;20047;-81
2023/05/10 04:38:02;;;;;;;68.78;38.63;;;12.30;99.90;;;;;;5517361;23;49636;-82
2023/05/10 05:30:36;;;;;;;38.80;26.38;;;12.30;99.90;;;;;;5180356;23;20017;-81
2023/05/10 05:33:05;;;;;;;39.58;26.25;;;12.30;99.90;;;;;;4907832;29;37047;-80
2023/05/10 05:36:01;;;;;;;41.15;27.75;;;12.30;99.90;;;;;;5301238;23;48680;-83
2023/05/10 05:41:03;;;;;;;41.53;25.80;;;12.40;99.90;;;;;;5322715;23;20041;-78
2023/05/10 05:43:29;;;;;;;51.00;27.05;;;12.40;99.90;;;;;;4924269;28;38211;-80
2023/05/10 05:45:57;;;;;;;49.35;25.88;;;12.40;99.90;;;;;;4921157;28;39207;-80
2023/05/10 05:48:24;;;;;;;46.35;24.52;;;12.30;99.90;;;;;;4906164;28;36494;-79
2023/05/10 05:50:53;;;;;;;43.28;25.30;;;12.40;99.90;;;;;;4911437;28;38894;-80
2023/05/10 05:53:19;;;;;;;40.53;23.40;;;12.50;99.90;;;;;;4914108;28;37119;-79
2023/05/10 05:55:57;;;;;;;36.28;23.98;;;12.50;99.90;;;;;;4914046;28;39648;-79
2023/05/10 05:58:24;;;;;;;37.10;24.20;;;12.50;99.90;;;;;;4912091;28;36875;-79
2023/05/10 06:00:51;;;;;;;44.30;24.95;;;12.60;99.90;;;;;;4910977;28;39632;-79
2023/05/10 06:03:18;;;;;;;34.97;23.08;;;12.60;99.90;;;;;;4912952;28;37529;-80
2023/05/10 06:05:44;;;;;;;37.85;22.00;;;12.70;99.90;;;;;;4909817;28;37872;-79
2023/05/10 06:08:10;;;;;;;35.50;21.23;;;12.60;99.90;;;;;;4910923;28;37792;-79
2023/05/10 06:10:37;;;;;;;33.45;20.38;;;12.60;99.90;;;;;;4909706;28;38579;-79
2023/05/10 06:13:03;;;;;;;32.67;19.77;;;12.60;99.90;;;;;;4925878;28;37231;-79
2023/05/10 06:15:29;;;;;;;33.42;19.85;;;12.60;99.90;;;;;;4913464;28;38297;-79
2023/05/10 06:17:55;;;;;;;35.75;21.98;;;12.60;99.90;;;;;;4938345;28;37638;-79
2023/05/10 06:20:21;;;;;;;28.15;18.65;;;12.60;99.90;;;;;;4947307;28;39422;-79
2023/05/10 06:22:50;;;;;;;26.00;17.27;;;12.60;99.90;;;;;;4945155;28;37067;-79
2023/05/10 06:25:17;;;;;;;24.20;16.38;;;12.60;99.90;;;;;;4914526;28;38178;-78
2023/05/10 06:27:44;;;;;;;22.20;15.73;;;12.60;99.90;;;;;;4913462;28;37448;-78
2023/05/10 06:30:13;;;;;;;22.90;16.13;;;12.60;99.90;;;;;;4911401;28;38071;-79
2023/05/10 06:32:39;;;;;;;24.00;15.98;;;12.60;99.90;;;;;;4914466;29;37116;-79
2023/05/10 06:35:06;;;;;;;27.77;17.50;;;12.70;99.90;;;;;;4944485;28;38566;-81
2023/05/10 06:37:32;;;;;;;30.90;17.00;;;12.70;99.90;;;;;;4912941;28;36170;-79
2023/05/10 06:39:58;;;;;;;28.35;17.67;;;12.70;99.90;;;;;;4914143;28;37775;-80
2023/05/10 06:42:25;;;;;;;22.27;15.93;;;12.70;99.90;;;;;;4910332;28;40042;-81
2023/05/10 06:44:51;;;;;;;26.38;18.15;;;12.70;99.90;;;;;;4918846;28;37561;-80
2023/05/10 06:47:17;;;;;;;21.17;15.40;;;12.70;99.90;;;;;;4912418;28;38086;-81
2023/05/10 06:49:44;;;;;;;26.17;16.23;;;12.80;99.90;;;;;;4919178;28;39356;-81
2023/05/10 06:52:10;;;;;;;22.65;15.85;;;12.80;99.90;;;;;;4920781;28;38683;-81
2023/05/10 06:54:36;;;;;;;19.63;14.73;;;12.90;99.90;;;;;;4946417;28;37275;-81
2023/05/10 06:57:03;;;;;;;15.30;13.63;;;13.00;99.90;;;;;;4916709;28;37513;-81
2023/05/10 06:59:29;;;;;;;19.92;13.80;;;13.10;99.90;;;;;;4911284;28;47113;-81
2023/05/10 07:01:58;;;;;;;15.13;13.43;;;13.30;99.90;;;;;;4948930;28;38050;-81
2023/05/10 07:04:27;;;;;;;17.00;12.60;;;13.40;99.90;;;;;;4917624;28;39628;-81
2023/05/10 07:06:53;;;;;;;13.85;11.48;;;13.50;99.90;;;;;;4914778;28;37205;-81
2023/05/10 07:09:20;;;;;;;12.75;11.23;;;13.50;99.90;;;;;;4912466;28;42149;-81
2023/05/10 07:11:46;;;;;;;12.32;10.75;;;13.50;99.90;;;;;;4910751;28;38028;-81
2023/05/10 07:14:12;;;;;;;14.90;10.57;;;13.50;99.90;;;;;;4941866;28;36877;-80
2023/05/10 07:16:38;;;;;;;10.68;9.48;;;13.40;99.90;;;;;;4942065;28;36147;-81
2023/05/10 07:19:07;;;;;;;12.23;10.25;;;13.50;99.90;;;;;;4913099;28;40344;-81
2023/05/10 07:21:34;;;;;;;11.68;10.48;;;13.50;99.90;;;;;;4913449;28;38246;-81
2023/05/10 07:24:01;;;;;;;11.45;10.30;;;13.50;99.90;;;;;;4914879;28;37266;-81
2023/05/10 07:26:27;;;;;;;11.45;9.82;;;13.50;99.90;;;;;;4898623;29;47631;-81
2023/05/10 07:28:53;;;;;;;11.88;9.57;;;13.70;99.90;;;;;;4944461;28;39049;-81
2023/05/10 07:31:19;;;;;;;12.30;9.57;;;13.80;99.90;;;;;;4910229;29;39112;-82
2023/05/10 07:33:48;;;;;;;9.32;7.88;;;13.80;99.90;;;;;;4918887;28;38535;-80
2023/05/10 07:36:15;;;;;;;8.57;7.78;;;13.70;99.90;;;;;;4916865;28;37476;-81
2023/05/10 07:38:41;;;;;;;9.32;7.53;;;13.70;99.90;;;;;;4919897;28;39244;-81
2023/05/10 07:41:12;;;;;;;7.80;7.00;;;13.70;99.90;;;;;;4921655;28;38040;-81
2023/05/10 07:43:38;;;;;;;9.48;6.78;;;13.60;99.90;;;;;;4917319;28;36058;-81
2023/05/10 07:46:05;;;;;;;9.02;7.07;;;13.60;99.90;;;;;;4944802;28;37142;-81
2023/05/10 07:48:31;;;;;;;8.57;6.78;;;13.60;99.90;;;;;;4908182;28;39007;-80
2023/05/10 07:50:58;;;;;;;7.97;6.25;;;13.60;99.90;;;;;;4908233;28;38296;-82
2023/05/10 07:53:27;;;;;;;7.80;6.32;;;13.70;99.90;;;;;;4917261;28;38453;-81
2023/05/10 07:56:29;;;;;;;6.95;6.20;;;13.70;99.90;;;;;;4920306;28;36739;-82
2023/05/10 07:58:56;;;;;;;9.35;6.70;;;13.90;99.90;;;;;;4914121;28;47214;-81
2023/05/10 08:01:23;;;;;;;7.72;6.47;;;13.80;99.90;;;;;;4920245;28;39076;-80
2023/05/10 08:03:50;;;;;;;8.20;6.80;;;13.90;99.90;;;;;;4919164;28;37214;-79
2023/05/10 08:06:20;;;;;;;5.63;5.15;;;13.90;99.90;;;;;;4901205;28;36241;-80
2023/05/10 08:08:50;;;;;;;8.00;6.70;;;13.80;99.90;;;;;;4900837;28;38468;-81
2023/05/10 08:11:17;;;;;;;7.68;5.75;;;13.90;99.90;;;;;;4895936;28;37278;-80
2023/05/10 08:13:44;;;;;;;6.20;5.65;;;14.00;99.90;;;;;;4892538;28;36843;-80
2023/05/10 08:16:10;;;;;;;7.25;5.72;;;13.90;99.90;;;;;;4897660;28;35364;-79
2023/05/10 08:18:38;;;;;;;9.15;6.85;;;13.90;99.90;;;;;;4903526;28;38932;-80
2023/05/10 08:21:05;;;;;;;10.20;7.80;;;13.80;99.90;;;;;;4899025;28;38786;-79
2023/05/10 08:23:32;;;;;;;8.95;6.90;;;13.80;99.90;;;;;;4895419;28;38901;-80
2023/05/10 08:25:58;;;;;;;7.88;6.07;;;13.90;99.90;;;;;;4898793;28;38448;-79
2023/05/10 08:28:25;;;;;;;7.80;6.10;;;13.90;99.90;;;;;;4898635;28;38880;-79
2023/05/10 08:30:51;;;;;;;6.90;5.30;;;14.00;99.90;;;;;;4895137;29;37464;-79
2023/05/10 08:33:18;;;;;;;6.10;5.50;;;14.00;99.90;;;;;;4896174;28;38453;-80
2023/05/10 08:35:45;;;;;;;6.25;5.65;;;14.10;99.90;;;;;;4903789;28;37946;-80
2023/05/10 08:38:12;;;;;;;8.02;5.63;;;14.10;99.90;;;;;;4929534;28;40779;-80
2023/05/10 08:40:42;;;;;;;6.78;6.18;;;14.10;99.90;;;;;;4903354;28;38114;-80
2023/05/10 08:43:12;;;;;;;6.45;5.75;;;14.20;99.90;;;;;;4902288;28;36824;-79
2023/05/10 08:45:40;;;;;;;7.60;5.43;;;14.20;99.90;;;;;;4902469;28;37036;-79
2023/05/10 08:48:10;;;;;;;6.90;5.95;;;14.20;99.90;;;;;;4894819;28;40174;-79
2023/05/10 08:50:41;;;;;;;7.32;6.03;;;14.20;99.90;;;;;;4904470;28;37930;-78
2023/05/10 08:53:13;;;;;;;10.20;5.68;;;14.10;99.90;;;;;;4900987;28;36992;-79
2023/05/10 08:55:41;;;;;;;5.78;4.68;;;14.10;99.90;;;;;;4900520;29;36709;-80
2023/05/10 08:58:09;;;;;;;5.93;4.40;;;14.10;99.90;;;;;;4900041;28;40277;-79
2023/05/10 09:00:37;;;;;;;6.63;4.55;;;14.20;99.90;;;;;;4902009;28;37109;-79
2023/05/10 09:03:04;;;;;;;6.60;4.90;;;14.20;99.90;;;;;;4900824;28;38349;-79
2023/05/10 09:05:31;;;;;;;4.88;4.28;;;14.30;99.90;;;;;;4904007;28;36802;-78
2023/05/10 09:08:00;;;;;;;4.82;4.32;;;14.40;99.90;;;;;;4903773;28;37681;-78
2023/05/10 09:10:27;;;;;;;5.30;4.30;;;14.30;99.90;;;;;;4905772;28;38446;-78
2023/05/10 09:12:56;;;;;;;5.97;4.80;;;14.50;99.90;;;;;;4901085;28;37923;-78
2023/05/10 09:15:25;;;;;;;5.43;4.53;;;14.50;99.90;;;;;;4901156;28;38217;-79
2023/05/10 09:17:52;;;;;;;5.50;4.82;;;14.40;99.90;;;;;;4895523;29;40488;-79
2023/05/10 09:20:18;;;;;;;5.93;4.20;;;14.40;99.90;;;;;;4893760;28;38769;-78
2023/05/10 09:22:44;;;;;;;6.88;4.72;;;14.40;99.90;;;;;;4896668;28;38361;-79
2023/05/10 09:25:16;;;;;;;5.72;4.13;;;14.40;99.90;;;;;;4931143;28;38470;-79
2023/05/10 09:27:47;;;;;;;5.80;5.20;;;14.30;99.90;;;;;;4902816;28;37969;-79
2023/05/10 09:30:33;;;;;;;8.93;6.35;;;14.30;99.90;;;;;;4902223;28;37672;-79
2023/05/10 09:32:59;;;;;;;6.78;5.75;;;14.30;99.90;;;;;;4902743;28;38153;-80
2023/05/10 09:35:29;;;;;;;7.97;6.10;;;14.20;99.90;;;;;;4909524;28;37335;-79
2023/05/10 09:37:57;;;;;;;9.30;5.88;;;14.20;99.90;;;;;;4910813;28;39136;-79
2023/05/10 09:40:25;;;;;;;6.80;5.90;;;14.10;99.90;;;;;;4904704;28;39255;-79
2023/05/10 09:42:56;;;;;;;10.57;6.85;;;14.10;99.90;;;;;;4907567;28;37465;-79
2023/05/10 09:45:24;;;;;;;7.15;6.07;;;14.10;99.90;;;;;;4904893;28;40568;-79
2023/05/10 09:47:50;;;;;;;9.52;6.07;;;14.00;99.90;;;;;;4904409;29;39108;-78
2023/05/10 09:50:16;;;;;;;8.52;5.60;;;14.00;99.90;;;;;;4897780;28;39127;-77
2023/05/10 09:52:54;;;;;;;8.02;5.95;;;13.90;99.90;;;;;;4898516;28;37893;-79
2023/05/10 09:55:22;;;;;;;8.27;5.43;;;13.80;99.90;;;;;;4901796;28;38083;-79
2023/05/10 09:57:57;;;;;;;5.97;5.38;;;13.90;99.90;;;;;;4896412;28;38702;-79
2023/05/10 10:00:24;;;;;;;9.73;5.60;;;13.80;99.90;;;;;;4902977;28;39642;-79
2023/05/10 10:02:57;;;;;;;6.40;5.15;;;13.80;99.90;;;;;;4906744;28;36682;-79
2023/05/10 10:05:35;;;;;;;10.30;6.78;;;13.80;99.90;;;;;;4909713;28;37514;-78
2023/05/10 10:08:06;;;;;;;11.02;7.60;;;13.80;99.90;;;;;;4907621;28;37717;-79
2023/05/10 10:10:33;;;;;;;13.52;8.82;;;13.70;99.90;;;;;;4900944;28;48054;-79
2023/05/10 10:13:00;;;;;;;10.65;9.05;;;13.70;99.90;;;;;;4895870;28;36103;-78
2023/05/10 10:15:26;;;;;;;10.82;8.63;;;13.70;99.90;;;;;;4898610;28;37370;-79
2023/05/10 10:17:53;;;;;;;13.13;8.95;;;13.70;99.90;;;;;;4898664;28;38324;-80
2023/05/10 10:20:22;;;;;;;12.80;8.23;;;13.70;99.90;;;;;;4896015;28;38634;-78
2023/05/10 10:22:48;;;;;;;8.57;7.30;;;13.70;99.90;;;;;;4897988;29;38546;-80
2023/05/10 10:25:16;;;;;;;7.82;6.68;;;13.70;99.90;;;;;;4932865;28;37675;-80
2023/05/10 10:27:57;;;;;;;6.97;6.25;;;13.80;99.90;;;;;;4899010;28;38787;-80
2023/05/10 10:30:45;;;;;;;7.55;6.00;;;13.80;99.90;;;;;;4898530;28;39196;-81
2023/05/10 10:33:23;;;;;;;7.88;5.50;;;13.90;99.90;;;;;;4900141;28;39453;-80
2023/05/10 10:35:50;;;;;;;8.38;5.28;;;14.10;99.90;;;;;;4932521;28;36261;-80
2023/05/10 10:38:17;;;;;;;6.63;5.07;;;14.10;99.90;;;;;;4900368;28;38706;-80
2023/05/10 10:40:43;;;;;;;9.02;5.63;;;14.10;99.90;;;;;;4890418;28;36700;-78
2023/05/10 10:43:27;;;;;;;8.15;5.03;;;14.30;99.90;;;;;;4904793;28;40744;-80
2023/05/10 10:46:13;;;;;;;6.50;4.60;;;14.30;99.90;;;;;;4897681;28;37221;-78
2023/05/10 10:48:40;;;;;;;5.35;4.32;;;14.20;99.90;;;;;;4899810;28;48374;-78
2023/05/10 10:51:09;;;;;;;6.30;4.50;;;14.20;99.90;;;;;;4897867;28;37644;-80
2023/05/10 10:53:38;;;;;;;7.20;4.70;;;14.40;99.90;;;;;;4899264;28;38816;-78
2023/05/10 10:56:13;;;;;;;6.85;4.88;;;14.60;99.90;;;;;;4900348;28;38074;-78
2023/05/10 10:58:40;;;;;;;6.18;4.45;;;14.70;99.90;;;;;;4905206;28;38732;-78
2023/05/10 11:01:11;;;;;;;6.75;3.78;;;14.80;99.90;;;;;;4910615;28;36724;-78
2023/05/10 11:03:38;;;;;;;6.50;4.10;;;14.90;99.90;;;;;;4906035;28;39749;-78
2023/05/10 11:06:07;;;;;;;4.93;4.28;;;15.00;99.90;;;;;;4906045;28;37180;-78
2023/05/10 11:08:41;;;;;;;7.43;4.30;;;15.00;99.90;;;;;;4920410;28;39951;-78
2023/05/10 11:11:14;;;;;;;5.70;3.85;;;14.90;99.90;;;;;;4904248;28;38567;-79
2023/05/10 11:13:44;;;;;;;5.93;3.70;;;14.80;99.90;;;;;;4908631;28;38085;-78
2023/05/10 11:16:31;;;;;;;7.18;4.22;;;14.90;99.90;;;;;;4907565;28;37152;-78
2023/05/10 11:19:07;;;;;;;10.23;4.72;;;14.90;99.90;;;;;;4908162;28;40138;-79
2023/05/10 11:21:44;;;;;;;8.05;4.00;;;14.80;99.90;;;;;;4897740;28;49096;-78
2023/05/10 11:24:15;;;;;;;10.38;5.20;;;14.80;99.90;;;;;;4914852;28;37430;-78
2023/05/10 11:26:41;;;;;;;6.35;4.13;;;14.60;99.90;;;;;;4898251;28;37403;-79
2023/05/10 11:29:08;;;;;;;7.90;4.25;;;14.70;99.90;;;;;;4896484;28;38344;-77
2023/05/10 11:31:34;;;;;;;7.40;4.30;;;14.80;99.90;;;;;;4897998;28;38430;-78
2023/05/10 11:34:04;;;;;;;6.07;4.05;;;14.80;99.90;;;;;;4896212;28;40072;-77
2023/05/10 11:36:35;;;;;;;7.55;4.20;;;14.80;99.90;;;;;;4896189;29;47113;-79
2023/05/10 11:39:02;;;;;;;5.43;3.60;;;14.80;99.90;;;;;;4898955;28;39989;-76
2023/05/10 11:41:30;;;;;;;6.10;3.65;;;15.00;99.90;;;;;;4898858;28;47295;-77
2023/05/10 11:43:57;;;;;;;3.95;2.78;;;15.00;99.90;;;;;;4915631;28;40047;-78
2023/05/10 11:46:26;;;;;;;3.60;3.05;;;15.00;99.90;;;;;;4896007;28;38334;-79
2023/05/10 11:49:01;;;;;;;5.25;3.08;;;15.00;99.90;;;;;;4898360;28;38028;-78
2023/05/10 11:51:27;;;;;;;5.90;3.75;;;15.20;99.90;;;;;;4897306;28;46787;-78
2023/05/10 11:53:55;;;;;;;9.27;3.25;;;15.30;99.90;;;;;;4922333;28;37954;-77
2023/05/10 11:56:23;;;;;;;6.05;3.78;;;15.50;99.90;;;;;;4906373;28;38601;-78
2023/05/10 11:58:57;;;;;;;4.38;3.22;;;15.70;99.90;;;;;;4906663;28;39416;-78
2023/05/10 12:01:26;;;;;;;4.80;3.33;;;15.80;99.90;;;;;;4905347;28;38191;-79
2023/05/10 12:03:54;;;;;;;6.40;3.63;;;15.90;99.90;;;;;;4899079;28;40053;-80
2023/05/10 12:06:21;;;;;;;5.75;3.97;;;16.10;99.90;;;;;;4898121;28;37028;-79
2023/05/10 12:08:52;;;;;;;7.97;3.75;;;16.30;99.90;;;;;;4910380;29;40879;-79
2023/05/10 12:11:19;;;;;;;7.97;3.72;;;16.40;99.90;;;;;;4930127;28;37215;-80
2023/05/10 12:13:49;;;;;;;10.70;4.03;;;16.60;99.90;;;;;;4923115;28;38794;-79
2023/05/10 12:16:20;;;;;;;7.80;4.20;;;16.40;99.90;;;;;;4898391;28;36887;-79
2023/05/10 12:18:51;;;;;;;6.05;3.58;;;16.20;99.90;;;;;;4902956;28;37403;-79
2023/05/10 12:21:19;;;;;;;4.65;3.70;;;16.30;99.90;;;;;;4902253;28;38727;-79
2023/05/10 12:23:47;;;;;;;7.03;3.70;;;16.20;99.90;;;;;;4894118;28;38484;-80
2023/05/10 12:26:14;;;;;;;7.40;3.42;;;16.00;99.90;;;;;;4892827;28;37344;-80
2023/05/10 12:28:41;;;;;;;6.82;3.70;;;16.10;99.90;;;;;;4898782;28;37177;-79
2023/05/10 12:31:08;;;;;;;8.32;3.72;;;16.10;99.90;;;;;;4894837;28;38945;-79
2023/05/10 12:33:44;;;;;;;6.55;3.15;;;16.40;99.90;;;;;;4895647;28;38148;-78
2023/05/10 12:36:11;;;;;;;5.15;3.50;;;16.50;99.90;;;;;;4889170;28;36580;-78
2023/05/10 12:38:43;;;;;;;6.05;2.95;;;16.80;99.90;;;;;;4894764;28;37685;-78
2023/05/10 12:41:11;;;;;;;6.13;3.00;;;17.10;99.90;;;;;;4896098;28;36981;-78
2023/05/10 12:43:38;;;;;;;4.40;2.75;;;17.30;99.90;;;;;;4894861;29;38752;-78
2023/05/10 12:46:13;;;;;;;4.95;2.55;;;17.10;99.90;;;;;;4900081;28;36865;-77
2023/05/10 12:48:41;;;;;;;7.43;3.53;;;17.00;99.90;;;;;;4897045;28;37815;-78
2023/05/10 12:51:09;;;;;;;5.90;3.45;;;16.90;99.90;;;;;;4897948;28;38530;-78
2023/05/10 12:53:39;;;;;;;7.07;3.72;;;17.10;99.90;;;;;;4921431;28;39214;-77
2023/05/10 12:56:09;;;;;;;9.80;3.40;;;16.80;99.90;;;;;;4898368;28;39056;-77
2023/05/10 12:58:35;;;;;;;6.57;3.05;;;16.80;99.90;;;;;;4897928;28;38166;-79
2023/05/10 13:01:02;;;;;;;8.23;3.20;;;16.70;99.90;;;;;;4893722;28;38607;-79
2023/05/10 13:03:28;;;;;;;6.18;3.40;;;16.60;99.90;;;;;;4907934;28;47563;-77
2023/05/10 13:05:54;;;;;;;6.13;3.22;;;16.70;99.90;;;;;;4893049;28;37486;-78
2023/05/10 13:08:20;;;;;;;5.10;2.53;;;16.80;99.90;;;;;;4900652;28;40202;-77
2023/05/10 13:10:46;;;;;;;5.40;2.60;;;16.60;99.90;;;;;;4895407;28;37033;-77
2023/05/10 13:13:13;;;;;;;6.68;2.60;;;16.60;99.90;;;;;;4892318;28;37117;-79
2023/05/10 13:15:39;;;;;;;6.28;2.97;;;16.60;99.90;;;;;;4932594;28;37798;-78
2023/05/10 13:18:05;;;;;;;7.85;3.28;;;16.50;99.90;;;;;;4930667;28;38287;-77
2023/05/10 13:20:31;;;;;;;6.95;3.10;;;16.50;99.90;;;;;;4901044;28;38858;-78
2023/05/10 13:22:57;;;;;;;5.53;2.50;;;16.20;99.90;;;;;;4903900;28;37317;-77
2023/05/10 13:25:23;;;;;;;11.18;3.97;;;16.20;99.90;;;;;;4897602;28;37847;-78
2023/05/10 13:27:50;;;;;;;7.18;3.45;;;16.00;99.90;;;;;;4904238;28;39204;-78
2023/05/10 13:30:16;;;;;;;9.25;3.05;;;15.90;99.90;;;;;;4900759;28;38992;-78
2023/05/10 13:32:42;;;;;;;8.85;2.90;;;15.90;99.90;;;;;;4900594;28;41721;-79
2023/05/10 13:35:08;;;;;;;5.32;2.78;;;15.90;99.90;;;;;;4901090;28;35889;-79
2023/05/10 13:37:37;;;;;;;5.65;2.50;;;15.90;99.90;;;;;;4901658;28;39420;-78
2023/05/10 13:40:04;;;;;;;7.32;2.25;;;16.00;99.90;;;;;;4890244;28;38825;-77
2023/05/10 13:42:33;;;;;;;5.43;3.03;;;16.20;99.90;;;;;;4891337;28;47352;-79
2023/05/10 13:45:01;;;;;;;7.53;3.00;;;16.50;99.90;;;;;;4900349;28;34808;-77
2023/05/10 13:47:27;;;;;;;4.28;2.35;;;16.50;99.90;;;;;;4924720;28;39767;-78
2023/05/10 13:49:57;;;;;;;4.82;2.75;;;16.60;99.90;;;;;;4923190;28;39779;-77
2023/05/10 13:52:23;;;;;;;4.10;2.30;;;16.70;99.90;;;;;;4892007;28;38413;-79
2023/05/10 13:54:51;;;;;;;4.55;2.80;;;16.90;99.90;;;;;;4887776;28;37850;-78
2023/05/10 13:57:18;;;;;;;4.15;2.55;;;16.90;99.90;;;;;;4893244;28;38693;-79
2023/05/10 13:59:44;;;;;;;4.60;2.30;;;16.90;99.90;;;;;;4894352;28;38816;-79
2023/05/10 14:02:12;;;;;;;3.40;2.08;;;17.00;99.90;;;;;;4927848;28;36854;-78
2023/05/10 14:04:39;;;;;;;4.47;2.63;;;17.00;99.90;;;;;;4898150;28;37206;-78
2023/05/10 14:07:05;;;;;;;6.65;2.53;;;17.10;99.90;;;;;;4895826;28;37639;-78
2023/05/10 14:09:31;;;;;;;3.83;2.42;;;17.10;99.90;;;;;;4922512;28;38572;-77
2023/05/10 14:11:57;;;;;;;6.22;2.97;;;17.00;99.90;;;;;;4894542;28;37369;-78
2023/05/10 14:14:23;;;;;;;4.45;2.70;;;17.10;99.90;;;;;;4927734;28;37949;-79
2023/05/10 14:16:49;;;;;;;5.30;2.80;;;17.10;99.90;;;;;;4928427;28;39448;-78
2023/05/10 14:19:15;;;;;;;6.97;3.25;;;17.10;99.90;;;;;;4895259;28;39009;-78
2023/05/10 14:21:42;;;;;;;8.95;4.20;;;16.90;99.90;;;;;;4898961;28;38672;-78
2023/05/10 14:24:09;;;;;;;6.55;3.92;;;16.80;99.90;;;;;;4923095;28;35107;-78
2023/05/10 14:26:35;;;;;;;8.10;3.70;;;16.70;99.90;;;;;;4893926;28;39030;-77
2023/05/10 14:29:02;;;;;;;7.32;4.20;;;16.70;99.90;;;;;;4889775;28;38740;-78
2023/05/10 14:31:30;;;;;;;7.75;4.10;;;16.60;99.90;;;;;;4927255;28;48101;-77
2023/05/10 14:33:57;;;;;;;7.25;4.95;;;16.40;99.90;;;;;;4898741;28;38908;-78
2023/05/10 14:36:23;;;;;;;8.70;5.50;;;16.40;99.90;;;;;;4900731;28;37294;-79
2023/05/10 14:38:50;;;;;;;9.52;5.43;;;16.40;99.90;;;;;;4894989;28;39963;-78
2023/05/10 14:41:17;;;;;;;7.82;6.07;;;16.30;99.90;;;;;;4896743;28;39633;-79
2023/05/10 14:43:43;;;;;;;12.15;6.00;;;16.20;99.90;;;;;;4892149;28;38386;-77
2023/05/10 14:46:09;;;;;;;12.18;6.25;;;16.20;99.90;;;;;;4893322;28;41626;-78
2023/05/10 14:48:36;;;;;;;10.38;5.88;;;16.20;99.90;;;;;;4899585;28;38352;-77
2023/05/10 14:51:03;;;;;;;11.05;6.57;;;16.30;99.90;;;;;;4902781;28;38012;-78
2023/05/10 14:53:29;;;;;;;8.30;4.93;;;16.50;99.90;;;;;;4900898;28;38163;-77
2023/05/10 14:55:56;;;;;;;15.05;5.68;;;16.30;99.90;;;;;;4896067;28;39757;-78
2023/05/10 14:58:22;;;;;;;8.55;5.90;;;16.30;99.90;;;;;;4896674;28;38784;-77
2023/05/10 15:00:48;;;;;;;5.53;4.90;;;16.30;99.90;;;;;;4903506;28;38399;-78
2023/05/10 15:03:15;;;;;;;7.00;5.15;;;16.30;99.90;;;;;;4901490;28;38607;-78
2023/05/10 15:05:41;;;;;;;6.93;5.60;;;16.20;99.90;;;;;;4912548;28;40973;-77
2023/05/10 15:08:07;;;;;;;8.35;5.53;;;16.20;99.90;;;;;;4917781;28;38272;-78
2023/05/10 15:10:33;;;;;;;8.90;6.07;;;16.10;99.90;;;;;;4903133;28;38678;-78
2023/05/10 15:13:00;;;;;;;6.40;5.43;;;16.20;99.90;;;;;;4913253;28;37494;-78
2023/05/10 15:15:26;;;;;;;8.77;6.20;;;16.20;99.90;;;;;;4933318;28;38785;-80
2023/05/10 15:17:52;;;;;;;8.73;5.65;;;16.20;99.90;;;;;;4911873;28;37594;-78
2023/05/10 15:20:21;;;;;;;8.63;6.13;;;16.20;99.90;;;;;;4912152;28;38247;-79
2023/05/10 15:22:47;;;;;;;11.95;7.03;;;16.10;99.90;;;;;;4902460;28;36473;-78
2023/05/10 15:25:15;;;;;;;8.52;6.55;;;16.00;99.90;;;;;;4906690;28;37550;-79
2023/05/10 15:27:43;;;;;;;11.40;6.65;;;15.90;99.90;;;;;;4908150;28;39109;-79
2023/05/10 15:30:10;;;;;;;8.75;5.70;;;15.80;99.90;;;;;;4911029;28;39094;-79
2023/05/10 15:32:37;;;;;;;11.32;5.75;;;15.60;99.90;;;;;;4904614;28;38200;-80
2023/05/10 15:35:03;;;;;;;10.57;6.45;;;15.50;99.90;;;;;;4941846;28;38528;-80
2023/05/10 15:37:29;;;;;;;9.85;6.18;;;15.50;99.90;;;;;;4936314;28;37110;-78
2023/05/10 15:40:03;;;;;;;10.50;5.63;;;15.50;99.90;;;;;;4909074;28;37194;-77
2023/05/10 15:42:30;;;;;;;10.23;6.63;;;15.40;99.90;;;;;;4901340;28;37291;-78
2023/05/10 15:44:56;;;;;;;9.88;6.80;;;15.40;99.90;;;;;;4916207;28;38607;-77
2023/05/10 15:47:23;;;;;;;9.80;6.82;;;15.40;99.90;;;;;;4908372;28;37582;-78
2023/05/10 15:49:49;;;;;;;9.15;6.43;;;15.30;99.90;;;;;;4904889;28;36565;-78
2023/05/10 15:52:15;;;;;;;7.18;5.97;;;15.20;99.90;;;;;;4904559;28;37090;-78
2023/05/10 15:54:41;;;;;;;11.20;6.82;;;15.20;99.90;;;;;;4913274;28;39985;-77
2023/05/10 15:57:08;;;;;;;10.77;7.28;;;15.20;99.90;;;;;;4929143;28;38148;-78
2023/05/10 15:59:34;;;;;;;10.80;6.40;;;15.20;99.90;;;;;;4910221;28;38874;-78
2023/05/10 16:02:02;;;;;;;8.07;6.07;;;15.10;99.90;;;;;;4909540;28;36987;-78
2023/05/10 16:04:29;;;;;;;7.20;5.88;;;15.10;99.90;;;;;;4910894;28;46252;-79
2023/05/10 16:06:55;;;;;;;8.18;6.25;;;15.10;99.90;;;;;;4909470;28;38098;-78
2023/05/10 16:09:21;;;;;;;6.93;6.18;;;15.10;99.90;;;;;;4947441;28;37333;-78
2023/05/10 16:11:47;;;;;;;7.85;6.22;;;15.10;99.90;;;;;;4911994;28;36452;-77
2023/05/10 16:14:15;;;;;;;7.90;6.13;;;15.10;99.90;;;;;;4907149;28;37600;-78
2023/05/10 16:16:41;;;;;;;9.65;5.88;;;15.10;99.90;;;;;;4904919;28;38922;-80